createdAt,value
2023-01-31T00:00:37.092Z,101059.1
2023-01-31T00:01:37.002Z,101061.89
2023-01-31T00:02:36.985Z,101061.71
2023-01-31T00:03:36.978Z,101055.18
2023-01-31T00:04:37.006Z,101047.19
2023-01-31T00:05:37.934Z,101052.93
2023-01-31T00:06:38.012Z,101050.84
2023-01-31T00:07:37.054Z,101055.71
2023-01-31T00:08:36.967Z,101057.04
2023-01-31T00:09:36.950Z,101051.65
2023-01-31T00:10:36.903Z,101048.71
2023-01-31T00:11:36.928Z,101048.54
2023-01-31T00:12:36.865Z,101048.06
2023-01-31T00:13:36.914Z,101043.03
2023-01-31T00:14:36.830Z,101041.07
2023-01-31T00:15:36.899Z,101039.6
2023-01-31T00:16:36.841Z,101033.56
2023-01-31T00:17:37.828Z,101027.03
2023-01-31T00:18:37.862Z,101024.11
2023-01-31T00:19:36.882Z,101021.83
2023-01-31T00:20:36.760Z,101024.45
2023-01-31T00:21:36.835Z,101027.06
2023-01-31T00:22:36.792Z,101025.26
2023-01-31T00:23:36.772Z,101021.67
2023-01-31T00:24:36.726Z,101022.67
2023-01-31T00:25:36.722Z,101022.67
2023-01-31T00:26:36.854Z,101023.65
2023-01-31T00:27:36.713Z,101023.65
2023-01-31T00:28:36.694Z,101022.51
2023-01-31T00:29:37.303Z,101024.46
2023-01-31T00:30:37.118Z,101024.14
2023-01-31T00:31:37.290Z,101026.92
2023-01-31T00:32:36.975Z,101020.12
2023-01-31T00:33:36.993Z,101020.93
2023-01-31T00:34:36.590Z,101023.87
2023-01-31T00:35:36.727Z,101034.42
2023-01-31T00:36:37.250Z,101020.44
2023-01-31T00:37:36.558Z,101029.09
2023-01-31T00:38:37.828Z,101029.9
2023-01-31T00:39:36.626Z,101028.93
2023-01-31T00:40:37.579Z,101029.25
2023-01-31T00:41:37.801Z,101029.9
2023-01-31T00:42:37.542Z,101031.07
2023-01-31T00:43:38.137Z,101034.64
2023-01-31T00:44:36.755Z,101031.89
2023-01-31T00:45:36.625Z,101037.25
2023-01-31T00:46:37.792Z,101034.53
2023-01-31T00:47:36.601Z,101034.82
2023-01-31T00:48:37.441Z,101031.76
2023-01-31T00:49:37.439Z,101027.19
2023-01-31T00:50:37.523Z,101020.98
2023-01-31T00:51:37.500Z,101018.54
2023-01-31T00:52:37.954Z,101027.19
2023-01-31T00:53:37.766Z,101019.51
2023-01-31T00:55:37.603Z,101021.8
2023-01-31T00:56:37.482Z,101025.88
2023-01-31T00:57:36.615Z,101025.91
2023-01-31T00:58:36.710Z,101034.69
2023-01-31T00:59:36.498Z,101037.46
2023-01-31T01:00:36.926Z,101037.5
2023-01-31T01:01:37.468Z,101037.46
2023-01-31T01:02:37.291Z,101039.59
2023-01-31T01:07:36.166Z,101043.7
2023-01-31T01:10:36.256Z,101045.5
2023-01-31T01:11:36.333Z,101044.18
2023-01-31T01:20:36.157Z,101046.82
2023-01-31T01:21:36.056Z,101041.76
2023-01-31T01:22:36.099Z,101043.56
2023-01-31T01:28:36.051Z,101051.09
2023-01-31T01:29:35.995Z,101056.48
2023-01-31T01:30:36.046Z,101051.25
2023-01-31T01:32:36.036Z,101054.21
2023-01-31T01:33:35.920Z,101053.4
2023-01-31T01:34:36.388Z,101059.77
2023-01-31T01:35:35.909Z,101058.43
2023-01-31T01:37:35.850Z,101059.77
2023-01-31T01:38:35.935Z,101054.87
2023-01-31T01:39:35.847Z,101050.46
2023-01-31T01:40:35.983Z,101052.42
2023-01-31T01:41:35.818Z,101049.32
2023-01-31T01:42:35.827Z,101047.2
2023-01-31T01:43:35.855Z,101047.2
2023-01-31T01:44:35.927Z,101044.12
2023-01-31T01:45:35.771Z,101048.21
2023-01-31T01:46:35.780Z,101047.23
2023-01-31T01:47:35.846Z,101048.37
2023-01-31T01:48:35.827Z,101048.68
2023-01-31T01:49:35.913Z,101048.37
2023-01-31T01:50:35.758Z,101046.57
2023-01-31T01:51:35.739Z,101051.79
2023-01-31T01:52:35.734Z,101048.72
2023-01-31T01:53:35.715Z,101046.79
2023-01-31T01:54:35.760Z,101041.24
2023-01-31T01:55:35.718Z,101049.7
2023-01-31T01:56:35.689Z,101045.81
2023-01-31T01:57:35.657Z,101044.99
2023-01-31T01:58:35.645Z,101042.7
2023-01-31T01:59:35.654Z,101040.26
2023-01-31T02:00:35.651Z,101038.62
2023-01-31T02:01:35.734Z,101041.07
2023-01-31T02:02:35.686Z,101038.78
2023-01-31T02:03:35.644Z,101040.42
2023-01-31T02:04:35.563Z,101041.07
2023-01-31T02:05:35.546Z,101046.46
2023-01-31T02:06:35.575Z,101042.4
2023-01-31T02:07:35.585Z,101039.93
2023-01-31T02:08:35.611Z,101037.32
2023-01-31T02:09:35.513Z,101036.17
2023-01-31T02:10:35.573Z,101044.17
2023-01-31T02:11:35.595Z,101040.96
2023-01-31T02:12:35.526Z,101046.62
2023-01-31T02:13:35.532Z,101045.83
2023-01-31T02:14:35.509Z,101047.6
2023-01-31T02:15:35.488Z,101042.92
2023-01-31T02:32:36.240Z,101038.34
2023-01-31T02:40:35.538Z,101034.81
2023-01-31T03:40:35.485Z,101045.49
2023-01-31T05:48:33.997Z,101147.07
2023-01-31T05:49:34.072Z,101140.87
2023-01-31T05:51:32.987Z,101145.28
2023-01-31T05:52:32.984Z,101148.84
2023-01-31T05:54:33.024Z,101144.43
2023-01-31T05:55:32.953Z,101151.61
2023-01-31T05:56:32.963Z,101148.98
2023-01-31T05:57:32.946Z,101155.67
2023-01-31T05:58:32.875Z,101154.37
2023-01-31T05:59:33.000Z,101153.23
2023-01-31T06:00:32.923Z,101154.53
2023-01-31T06:01:32.936Z,101156.49
2023-01-31T06:02:32.813Z,101159.92
2023-01-31T06:03:32.859Z,101160.73
2023-01-31T06:04:33.050Z,101165.79
2023-01-31T06:05:32.844Z,101160.38
2023-01-31T06:06:32.834Z,101160.87
2023-01-31T06:07:32.873Z,101163.15
2023-01-31T06:08:32.907Z,101161.53
2023-01-31T06:09:32.800Z,101161.2
2023-01-31T06:10:32.789Z,101168.03
2023-01-31T06:11:32.861Z,101166.89
2023-01-31T06:12:32.744Z,101172.1
2023-01-31T06:13:32.734Z,101173.74
2023-01-31T06:14:32.742Z,101170.78
2023-01-31T06:15:32.781Z,101173.9
2023-01-31T06:16:32.764Z,101171.76
2023-01-31T06:17:33.736Z,101171.43
2023-01-31T06:18:32.695Z,101177.64
2023-01-31T06:19:32.679Z,101176.32
2023-01-31T06:20:32.670Z,101184.16
2023-01-31T06:21:32.641Z,101175.84
2023-01-31T06:22:33.682Z,101188.08
2023-01-31T06:23:32.587Z,101181.55
2023-01-31T06:24:32.591Z,101187.42
2023-01-31T06:25:32.624Z,101184.77
2023-01-31T06:26:32.678Z,101186.59
2023-01-31T06:27:32.608Z,101188.08
2023-01-31T06:28:32.651Z,101190.18
2023-01-31T06:29:32.525Z,101193.25
2023-01-31T06:30:32.673Z,101193.43
2023-01-31T06:31:32.586Z,101194.25
2023-01-31T06:32:32.514Z,101191.96
2023-01-31T06:33:44.384Z,101196.64
2023-01-31T06:34:32.567Z,101192.71
2023-01-31T06:35:32.509Z,101194.84
2023-01-31T06:36:32.514Z,101199.42
2023-01-31T06:37:32.545Z,101199.42
2023-01-31T06:38:32.438Z,101199.59
2023-01-31T06:39:32.439Z,101205.29
2023-01-31T06:40:32.412Z,101203.34
2023-01-31T06:41:32.407Z,101210.31
2023-01-31T06:42:32.403Z,101210.8
2023-01-31T06:43:32.377Z,101204.95
2023-01-31T06:44:32.465Z,101203.61
2023-01-31T06:45:32.562Z,101204.43
2023-01-31T06:46:32.391Z,101201.17
2023-01-31T06:47:33.359Z,101207.04
2023-01-31T06:48:32.334Z,101203.93
2023-01-31T06:49:32.285Z,101207.53
2023-01-31T06:50:32.417Z,101219.94
2023-01-31T06:51:32.337Z,101219.78
2023-01-31T06:52:33.285Z,101219.45
2023-01-31T06:53:32.271Z,101225.79
2023-01-31T06:54:32.253Z,101229.55
2023-01-31T06:55:32.322Z,101225.63
2023-01-31T06:56:32.277Z,101225.79
2023-01-31T06:57:32.239Z,101219.46
2023-01-31T06:58:32.219Z,101227.43
2023-01-31T06:59:33.192Z,101221.71
2023-01-31T07:00:32.243Z,101230.01
2023-01-31T07:01:32.282Z,101221.53
2023-01-31T07:02:32.192Z,101229.85
2023-01-31T07:03:32.226Z,101229.68
2023-01-31T07:04:32.209Z,101230.18
2023-01-31T07:05:33.155Z,101230.84
2023-01-31T07:06:32.111Z,101233.78
2023-01-31T07:07:32.102Z,101230.51
2023-01-31T07:08:35.234Z,101229.51
2023-01-31T07:09:33.085Z,101226.08
2023-01-31T07:10:32.170Z,101228.04
2023-01-31T07:11:32.125Z,101224.45
2023-01-31T07:12:32.048Z,101229.51
2023-01-31T07:13:32.011Z,101227.39
2023-01-31T07:14:32.047Z,101232.78
2023-01-31T07:15:32.122Z,101223.61
2023-01-31T07:16:31.980Z,101228.51
2023-01-31T07:17:32.019Z,101237
2023-01-31T07:18:32.034Z,101230.96
2023-01-31T07:19:33.043Z,101235.21
2023-01-31T07:20:31.943Z,101236.32
2023-01-31T07:21:32.067Z,101244.65
2023-01-31T07:22:31.947Z,101236.5
2023-01-31T07:23:31.953Z,101237.46
2023-01-31T07:24:31.935Z,101226.21
2023-01-31T07:25:31.997Z,101228.49
2023-01-31T07:26:31.883Z,101234.51
2023-01-31T07:27:31.939Z,101240.06
2023-01-31T07:28:31.858Z,101232.71
2023-01-31T07:29:31.982Z,101225.2
2023-01-31T07:30:32.862Z,101225.84
2023-01-31T07:31:31.940Z,101226.32
2023-01-31T07:32:31.885Z,101225.84
2023-01-31T07:33:31.834Z,101227.95
2023-01-31T07:34:31.855Z,101225.18
2023-01-31T07:35:31.860Z,101223.87
2023-01-31T07:36:31.772Z,101228.61
2023-01-31T07:37:31.783Z,101227.48
2023-01-31T07:38:31.839Z,101230.09
2023-01-31T07:39:31.790Z,101223.56
2023-01-31T07:40:31.700Z,101222.22
2023-01-31T07:41:31.780Z,101225.46
2023-01-31T07:42:31.830Z,101221.87
2023-01-31T07:43:31.660Z,101222.85
2023-01-31T07:44:31.703Z,101221.21
2023-01-31T07:45:31.690Z,101224.82
2023-01-31T07:46:31.817Z,101225.31
2023-01-31T07:47:31.640Z,101228.08
2023-01-31T07:48:32.655Z,101227.73
2023-01-31T07:49:31.643Z,101234.78
2023-01-31T07:50:31.721Z,101228.08
2023-01-31T07:51:31.679Z,101234.07
2023-01-31T07:52:31.601Z,101232
2023-01-31T07:53:32.617Z,101236.74
2023-01-31T07:54:31.599Z,101240.79
2023-01-31T07:55:31.692Z,101248.28
2023-01-31T07:56:31.637Z,101246.97
2023-01-31T07:57:31.608Z,101244.04
2023-01-31T07:58:31.593Z,101245.34
2023-01-31T07:59:31.501Z,101246.32
2023-01-31T08:00:31.552Z,101251.71
2023-01-31T08:01:33.663Z,101241.92
2023-01-31T08:02:31.523Z,101251.06
2023-01-31T08:03:31.475Z,101244.18
2023-01-31T08:04:31.601Z,101245.29
2023-01-31T08:05:31.495Z,101244.64
2023-01-31T08:06:31.461Z,101241.2
2023-01-31T08:07:31.443Z,101243
2023-01-31T08:08:32.429Z,101241.67
2023-01-31T08:09:31.437Z,101235.62
2023-01-31T08:10:31.440Z,101236.57
2023-01-31T08:11:31.424Z,101235.76
2023-01-31T08:12:31.362Z,101235.6
2023-01-31T08:13:31.334Z,101238.06
2023-01-31T08:14:32.316Z,101241.65
2023-01-31T08:15:31.376Z,101235.39
2023-01-31T08:16:31.335Z,101235.89
2023-01-31T08:17:31.370Z,101231.64
2023-01-31T08:18:31.384Z,101237.46
2023-01-31T08:19:31.271Z,101236.32
2023-01-31T08:20:31.279Z,101235.54
2023-01-31T08:21:31.230Z,101229.64
2023-01-31T08:22:31.298Z,101237.96
2023-01-31T08:23:31.302Z,101238.79
2023-01-31T08:24:31.345Z,101241.37
2023-01-31T08:25:31.279Z,101236.61
2023-01-31T08:26:31.252Z,101242.82
2023-01-31T08:27:31.209Z,101247.07
2023-01-31T08:28:31.297Z,101241.17
2023-01-31T08:29:31.197Z,101245.42
2023-01-31T08:30:32.249Z,101249.14
2023-01-31T08:31:32.186Z,101248.17
2023-01-31T08:32:31.159Z,101246.2
2023-01-31T08:33:31.145Z,101246.86
2023-01-31T08:34:31.140Z,101253.23
2023-01-31T08:35:31.127Z,101251.39
2023-01-31T08:36:32.394Z,101251.09
2023-01-31T08:37:31.278Z,101247.96
2023-01-31T08:38:31.047Z,101250.4
2023-01-31T08:39:31.908Z,101249.57
2023-01-31T08:40:31.078Z,101243.2
2023-01-31T08:41:31.086Z,101244.5
2023-01-31T08:42:31.131Z,101250.2
2023-01-31T08:43:31.880Z,101245.82
2023-01-31T08:44:31.043Z,101249.87
2023-01-31T08:45:30.999Z,101246.57
2023-01-31T08:46:32.029Z,101252.29
2023-01-31T08:47:31.066Z,101251.81
2023-01-31T08:48:30.970Z,101253.78
2023-01-31T08:49:30.912Z,101260.12
2023-01-31T08:50:30.995Z,101256.35
2023-01-31T08:51:30.975Z,101260.96
2023-01-31T08:52:30.923Z,101258.78
2023-01-31T08:53:31.879Z,101263.69
2023-01-31T08:54:30.917Z,101266.64
2023-01-31T08:55:30.863Z,101268.59
2023-01-31T08:56:30.834Z,101273.66
2023-01-31T08:57:30.884Z,101280.31
2023-01-31T08:58:30.883Z,101274.56
2023-01-31T08:59:30.941Z,101271.62
2023-01-31T09:00:30.909Z,101272.96
2023-01-31T09:01:30.909Z,101273.75
2023-01-31T09:02:30.784Z,101280.1
2023-01-31T09:03:30.770Z,101280.26
2023-01-31T09:04:30.827Z,101280.07
2023-01-31T09:05:30.776Z,101277.46
2023-01-31T09:06:30.749Z,101275.34
2023-01-31T09:07:30.890Z,101274.32
2023-01-31T09:08:30.839Z,101273.87
2023-01-31T09:09:32.403Z,101275.15
2023-01-31T09:10:30.995Z,101271.89
2023-01-31T09:11:31.094Z,101282.01
2023-01-31T09:12:30.853Z,101276.29
2023-01-31T09:13:30.800Z,101281.17
2023-01-31T09:14:30.709Z,101276.76
2023-01-31T09:15:30.861Z,101279.7
2023-01-31T09:16:30.835Z,101276.6
2023-01-31T09:17:30.648Z,101280.96
2023-01-31T09:18:30.658Z,101277.69
2023-01-31T09:19:30.704Z,101277.2
2023-01-31T09:20:30.650Z,101274.1
2023-01-31T09:21:30.652Z,101274.76
2023-01-31T09:22:30.653Z,101276.39
2023-01-31T09:23:30.573Z,101271.18
2023-01-31T09:24:30.635Z,101273.98
2023-01-31T09:25:44.132Z,101268.45
2023-01-31T09:26:31.632Z,101268.64
2023-01-31T09:27:30.597Z,101280.25
2023-01-31T09:28:30.537Z,101274.23
2023-01-31T09:29:30.488Z,101268.43
2023-01-31T09:30:30.523Z,101265.2
2023-01-31T09:31:30.696Z,101270.14
2023-01-31T09:32:30.473Z,101272.64
2023-01-31T09:33:30.602Z,101269
2023-01-31T09:34:30.449Z,101276.92
2023-01-31T09:35:31.490Z,101275.96
2023-01-31T09:36:31.526Z,101274.07
2023-01-31T09:37:30.435Z,101267.63
2023-01-31T09:38:30.554Z,101275.01
2023-01-31T09:39:30.370Z,101266.75
2023-01-31T09:40:30.391Z,101277.55
2023-01-31T09:41:30.394Z,101265.73
2023-01-31T09:42:30.378Z,101266.4
2023-01-31T09:43:30.578Z,101259.14
2023-01-31T09:44:30.300Z,101256.9
2023-01-31T09:45:30.415Z,101264.29
2023-01-31T09:46:30.397Z,101261.38
2023-01-31T09:47:30.414Z,101260.78
2023-01-31T09:48:30.330Z,101261.31
2023-01-31T09:49:30.349Z,101261.65
2023-01-31T09:50:30.247Z,101260.71
2023-01-31T09:51:30.377Z,101263.33
2023-01-31T09:52:30.426Z,101268.26
2023-01-31T09:53:31.108Z,101266.65
2023-01-31T09:54:30.266Z,101263.75
2023-01-31T09:55:30.271Z,101262.16
2023-01-31T09:56:30.236Z,101257.11
2023-01-31T09:57:30.246Z,101261.53
2023-01-31T09:58:30.424Z,101252.46
2023-01-31T09:59:30.357Z,101261.89
2023-01-31T10:00:31.176Z,101259.98
2023-01-31T10:01:30.192Z,101253.47
2023-01-31T10:02:30.230Z,101257.06
2023-01-31T10:03:30.228Z,101263.25
2023-01-31T10:04:30.164Z,101256.54
2023-01-31T10:05:30.217Z,101250.53
2023-01-31T10:06:30.109Z,101254.28
2023-01-31T10:07:30.126Z,101247.44
2023-01-31T10:08:30.224Z,101247.39
2023-01-31T10:09:30.188Z,101250.5
2023-01-31T10:10:30.808Z,101247.55
2023-01-31T10:11:30.226Z,101243.31
2023-01-31T10:12:30.012Z,101239.2
2023-01-31T10:13:29.929Z,101249.79
2023-01-31T10:14:30.034Z,101240.15
2023-01-31T10:15:30.080Z,101232.82
2023-01-31T10:16:29.942Z,101239.49
2023-01-31T10:17:29.937Z,101228.89
2023-01-31T10:18:29.953Z,101233.14
2023-01-31T10:19:29.950Z,101225.79
2023-01-31T10:20:29.908Z,101240.48
2023-01-31T10:21:29.959Z,101234.26
2023-01-31T10:22:29.915Z,101234.89
2023-01-31T10:23:29.923Z,101238.17
2023-01-31T10:24:29.918Z,101239.31
2023-01-31T10:25:29.836Z,101241.05
2023-01-31T10:26:29.899Z,101234.03
2023-01-31T10:27:29.858Z,101239.59
2023-01-31T10:28:29.853Z,101235.68
2023-01-31T10:29:30.021Z,101235.34
2023-01-31T10:30:29.835Z,101229.5
2023-01-31T10:31:29.857Z,101233.85
2023-01-31T10:32:29.816Z,101232.72
2023-01-31T10:33:29.810Z,101237.07
2023-01-31T10:34:29.904Z,101235.31
2023-01-31T10:35:29.809Z,101234.48
2023-01-31T10:36:29.804Z,101227.95
2023-01-31T10:37:29.728Z,101224.34
2023-01-31T10:38:29.730Z,101232.83
2023-01-31T10:39:29.736Z,101229.71
2023-01-31T10:40:29.728Z,101228.21
2023-01-31T10:41:29.688Z,101229.37
2023-01-31T10:42:29.741Z,101232.42
2023-01-31T10:43:29.791Z,101223.94
2023-01-31T10:44:29.713Z,101228.52
2023-01-31T10:45:29.702Z,101223.95
2023-01-31T10:46:29.672Z,101221.5
2023-01-31T10:47:45.944Z,101221.53
2023-01-31T10:48:48.583Z,101212.45
2023-01-31T10:49:45.992Z,101211.29
2023-01-31T10:50:45.849Z,101211.48
2023-01-31T10:51:45.865Z,101213.89
2023-01-31T10:52:49.127Z,101208.14
2023-01-31T10:53:45.789Z,101204.29
2023-01-31T10:54:45.739Z,101203.64
2023-01-31T10:55:38.179Z,101203.85
2023-01-31T10:56:37.444Z,101209.09
2023-01-31T10:57:37.137Z,101202.75
2023-01-31T10:58:37.241Z,101203.76
